createdAt,value
2022-09-15T00:00:39.899Z,19.42
2022-09-15T00:01:41.916Z,19.40
2022-09-15T00:02:45.285Z,19.39
2022-09-15T00:03:47.596Z,19.39
2022-09-15T00:04:50.335Z,19.37
2022-09-15T00:05:53.022Z,19.38
2022-09-15T00:06:55.987Z,19.37
2022-09-15T00:07:57.884Z,19.37
2022-09-15T00:09:00.782Z,19.37
2022-09-15T00:10:03.395Z,19.37
2022-09-15T00:11:10.400Z,19.36
2022-09-15T00:12:12.208Z,19.35
2022-09-15T00:13:15.107Z,19.35
2022-09-15T00:14:16.843Z,19.34
2022-09-15T00:15:21.132Z,19.35
2022-09-15T00:16:25.221Z,19.34
2022-09-15T00:17:29.242Z,19.34
2022-09-15T00:18:31.529Z,19.34
2022-09-15T00:19:34.288Z,19.35
2022-09-15T00:20:40.033Z,19.36
2022-09-15T00:21:43.336Z,19.36
2022-09-15T00:22:45.365Z,19.35
2022-09-15T00:23:48.945Z,19.36
2022-09-15T00:24:50.738Z,19.36
2022-09-15T00:25:54.545Z,19.36
2022-09-15T00:26:56.810Z,19.37
2022-09-15T00:27:59.654Z,19.37
2022-09-15T00:29:02.159Z,19.35
2022-09-15T00:30:05.478Z,19.34
2022-09-15T00:31:10.223Z,19.34
2022-09-15T00:32:13.203Z,19.35
2022-09-15T00:33:16.262Z,19.34
2022-09-15T00:34:19.216Z,19.34
2022-09-15T00:35:21.135Z,19.33
2022-09-15T00:36:25.155Z,19.33
2022-09-15T00:37:26.899Z,19.33
2022-09-15T00:38:29.784Z,19.32
2022-09-15T00:39:31.585Z,19.32
2022-09-15T00:40:35.083Z,19.32
2022-09-15T00:41:40.046Z,19.33
2022-09-15T00:42:41.843Z,19.33
2022-09-15T00:43:51.062Z,19.35
2022-09-15T00:44:55.915Z,19.33
2022-09-15T00:45:58.699Z,19.34
2022-09-15T00:47:18.844Z,19.33
2022-09-15T00:48:23.683Z,19.34
2022-09-15T00:49:30.840Z,19.34
2022-09-15T00:50:35.634Z,19.33
2022-09-15T00:51:43.039Z,19.34
2022-09-15T00:52:50.345Z,19.33
2022-09-15T00:53:53.551Z,19.33
2022-09-15T00:55:03.638Z,19.33
2022-09-15T00:56:08.484Z,19.32
2022-09-15T00:57:16.993Z,19.32
2022-09-15T00:58:23.154Z,19.32
2022-09-15T00:59:31.112Z,19.31
2022-09-15T01:00:34.125Z,19.30
2022-09-15T01:01:37.122Z,19.31
2022-09-15T01:02:42.404Z,19.29
2022-09-15T01:03:45.371Z,19.30
2022-09-15T01:04:47.900Z,19.29
2022-09-15T01:05:55.792Z,19.30
2022-09-15T01:07:01.096Z,19.29
2022-09-15T01:08:08.042Z,19.29
2022-09-15T01:09:17.045Z,19.29
2022-09-15T01:10:24.226Z,19.28
2022-09-15T01:11:26.171Z,19.28
2022-09-15T01:12:29.559Z,19.28
2022-09-15T01:13:31.488Z,19.27
2022-09-15T01:14:34.376Z,19.28
2022-09-15T01:15:43.091Z,19.26
2022-09-15T01:16:56.304Z,19.25
2022-09-15T01:18:10.506Z,19.26
2022-09-15T01:19:32.284Z,19.24
2022-09-15T01:21:01.888Z,19.24
2022-09-15T01:22:13.746Z,19.25
2022-09-15T01:23:36.889Z,19.23
2022-09-15T01:24:46.522Z,19.22
2022-09-15T01:26:19.476Z,19.22
2022-09-15T01:28:01.002Z,19.21
2022-09-15T01:29:34.751Z,19.18
2022-09-15T01:30:40.684Z,19.19
2022-09-15T01:32:03.196Z,19.18
2022-09-15T01:33:14.806Z,19.20
2022-09-15T01:34:20.523Z,19.18
2022-09-15T01:35:33.801Z,19.17
2022-09-15T01:36:42.929Z,19.19
2022-09-15T01:37:50.205Z,19.17
2022-09-15T01:39:01.517Z,19.17
2022-09-15T01:40:05.160Z,19.18
2022-09-15T01:41:14.533Z,19.17
2022-09-15T01:42:18.620Z,19.17
2022-09-15T01:43:24.452Z,19.18
2022-09-15T01:44:29.551Z,19.16
2022-09-15T01:45:36.241Z,19.15
2022-09-15T01:46:44.897Z,19.15
2022-09-15T01:47:49.401Z,19.13
2022-09-15T01:48:54.376Z,19.13
2022-09-15T01:50:02.569Z,19.13
2022-09-15T01:51:06.693Z,19.10
2022-09-15T01:52:09.691Z,19.10
2022-09-15T01:53:16.049Z,19.09
2022-09-15T01:54:23.277Z,19.09
2022-09-15T01:55:31.765Z,19.10
2022-09-15T01:56:34.807Z,19.11
2022-09-15T01:57:36.620Z,19.09
2022-09-15T01:58:40.956Z,19.10
2022-09-15T01:59:43.151Z,19.11
2022-09-15T02:00:53.340Z,19.11
2022-09-15T02:02:03.016Z,19.11
2022-09-15T02:03:17.390Z,19.11
2022-09-15T02:04:27.628Z,19.10
2022-09-15T02:05:35.009Z,19.10
2022-09-15T02:06:43.111Z,19.08
2022-09-15T02:07:54.196Z,19.07
2022-09-15T02:09:01.485Z,19.06
2022-09-15T02:10:11.620Z,19.06
2022-09-15T02:11:17.914Z,19.05
2022-09-15T02:12:32.834Z,19.03
2022-09-15T02:13:45.203Z,19.03
2022-09-15T02:14:57.179Z,19.04
2022-09-15T02:16:00.989Z,19.02
2022-09-15T02:17:05.434Z,19.02
2022-09-15T02:18:08.596Z,19.03
2022-09-15T02:19:20.261Z,19.03
2022-09-15T02:20:33.289Z,19.05
2022-09-15T02:21:45.446Z,19.01
2022-09-15T02:22:52.192Z,19.01
2022-09-15T02:23:58.304Z,19.01
2022-09-15T02:25:06.129Z,19.00
2022-09-15T02:26:14.129Z,18.98
2022-09-15T02:27:22.329Z,18.98
2022-09-15T02:28:30.983Z,18.97
2022-09-15T02:29:37.148Z,18.98
2022-09-15T02:30:41.928Z,18.99
2022-09-15T02:31:48.271Z,18.99
2022-09-15T02:32:56.148Z,18.98
2022-09-15T02:34:02.241Z,18.98
2022-09-15T02:35:07.625Z,18.97
2022-09-15T02:36:12.987Z,18.97
2022-09-15T02:37:16.048Z,18.98
2022-09-15T02:38:20.305Z,18.98
2022-09-15T02:39:26.284Z,18.98
2022-09-15T02:40:30.623Z,18.97
2022-09-15T02:41:34.039Z,18.97
2022-09-15T02:42:36.831Z,18.97
2022-09-15T02:43:45.393Z,18.98
2022-09-15T02:44:48.096Z,18.96
2022-09-15T02:45:49.976Z,18.98
2022-09-15T02:46:54.207Z,18.97
2022-09-15T02:47:57.819Z,18.95
2022-09-15T02:49:00.629Z,18.95
2022-09-15T02:50:02.502Z,18.94
2022-09-15T02:51:05.265Z,18.94
2022-09-15T02:52:07.337Z,18.94
2022-09-15T02:53:10.236Z,18.95
2022-09-15T02:54:12.253Z,18.94
2022-09-15T02:55:16.321Z,18.94
2022-09-15T02:56:18.185Z,18.94
2022-09-15T02:57:21.821Z,18.93
2022-09-15T02:58:23.883Z,18.93
2022-09-15T02:59:26.621Z,18.92
2022-09-15T03:00:29.098Z,18.91
2022-09-15T03:01:34.444Z,18.90
2022-09-15T03:02:38.628Z,18.89
2022-09-15T03:03:43.060Z,18.88
2022-09-15T03:04:44.947Z,18.88
2022-09-15T03:05:47.698Z,18.89
2022-09-15T03:06:49.507Z,18.88
2022-09-15T03:07:52.548Z,18.89
2022-09-15T03:08:56.509Z,18.90
2022-09-15T03:09:59.538Z,18.89
2022-09-15T03:11:01.391Z,18.90
2022-09-15T03:12:04.165Z,18.89
2022-09-15T03:13:05.995Z,18.89
2022-09-15T03:14:08.829Z,18.88
2022-09-15T03:15:12.631Z,18.88
2022-09-15T03:16:18.280Z,18.87
2022-09-15T03:17:20.092Z,18.86
2022-09-15T03:18:24.290Z,18.86
2022-09-15T03:19:26.300Z,18.86
2022-09-15T03:20:30.277Z,18.88
2022-09-15T03:21:32.051Z,18.85
2022-09-15T03:22:35.319Z,18.85
2022-09-15T03:23:37.657Z,18.84
2022-09-15T03:24:42.354Z,18.85
2022-09-15T03:25:45.631Z,18.85
2022-09-15T03:26:48.412Z,18.85
2022-09-15T03:27:50.171Z,18.86
2022-09-15T03:28:53.443Z,18.86
2022-09-15T03:29:55.588Z,18.84
2022-09-15T03:30:58.459Z,18.84
2022-09-15T03:32:00.289Z,18.85
2022-09-15T03:33:03.312Z,18.85
2022-09-15T03:34:06.710Z,18.86
2022-09-15T03:35:10.262Z,18.84
2022-09-15T03:36:12.991Z,18.83
2022-09-15T03:37:14.795Z,18.82
2022-09-15T03:38:18.059Z,18.82
2022-09-15T03:39:19.843Z,18.82
2022-09-15T03:40:22.623Z,18.82
2022-09-15T03:41:25.493Z,18.81
2022-09-15T03:42:28.267Z,18.82
2022-09-15T03:43:31.726Z,18.81
2022-09-15T03:44:35.367Z,18.82
2022-09-15T03:45:38.010Z,18.80
2022-09-15T03:46:40.811Z,18.78
2022-09-15T03:47:42.591Z,18.76
2022-09-15T03:48:47.410Z,18.77
2022-09-15T03:49:50.763Z,18.78
2022-09-15T03:50:53.617Z,18.78
2022-09-15T03:51:55.515Z,18.78
2022-09-15T03:53:00.217Z,18.78
2022-09-15T03:54:02.007Z,18.78
2022-09-15T03:55:05.133Z,18.77
2022-09-15T03:56:08.809Z,18.77
2022-09-15T03:57:11.584Z,18.76
2022-09-15T03:58:13.747Z,18.77
2022-09-15T03:59:18.842Z,18.76
2022-09-15T04:00:21.208Z,18.77
2022-09-15T04:01:25.107Z,18.75
2022-09-15T04:02:27.038Z,18.77
2022-09-15T04:03:31.041Z,18.77
2022-09-15T04:04:33.046Z,18.76
2022-09-15T04:05:38.671Z,18.76
2022-09-15T04:06:41.201Z,18.75
2022-09-15T04:07:44.030Z,18.76
2022-09-15T04:08:45.863Z,18.77
2022-09-15T04:09:48.887Z,18.76
2022-09-15T04:10:50.630Z,18.76
2022-09-15T04:11:53.424Z,18.75
2022-09-15T04:12:55.323Z,18.75
2022-09-15T04:13:58.549Z,18.74
2022-09-15T04:15:00.573Z,18.74
2022-09-15T04:16:05.648Z,18.74
2022-09-15T04:17:07.541Z,18.75
2022-09-15T04:18:10.683Z,18.75
2022-09-15T04:19:12.464Z,18.74
2022-09-15T04:20:17.151Z,18.74
2022-09-15T04:21:22.791Z,18.74
2022-09-15T04:22:25.615Z,18.73
2022-09-15T04:23:28.006Z,18.73
2022-09-15T04:24:31.197Z,18.72
2022-09-15T04:25:32.998Z,18.73
2022-09-15T04:26:37.869Z,18.72
2022-09-15T04:27:39.717Z,18.72
2022-09-15T04:28:42.426Z,18.72
2022-09-15T04:29:44.250Z,18.73
2022-09-15T04:30:46.985Z,18.73
2022-09-15T04:31:48.955Z,18.71
2022-09-15T04:32:52.419Z,18.71
2022-09-15T04:33:55.679Z,18.70
2022-09-15T04:34:58.441Z,18.71
2022-09-15T04:36:00.486Z,18.70
2022-09-15T04:37:04.794Z,18.68
2022-09-15T04:38:06.609Z,18.68
2022-09-15T04:39:09.610Z,18.67
2022-09-15T04:40:11.508Z,18.69
2022-09-15T04:41:15.506Z,18.70
2022-09-15T04:42:17.321Z,18.70
2022-09-15T04:43:20.317Z,18.69
2022-09-15T04:44:22.238Z,18.67
2022-09-15T04:45:25.146Z,18.66
2022-09-15T04:46:27.050Z,18.66
2022-09-15T04:47:30.039Z,18.65
2022-09-15T04:48:32.741Z,18.66
2022-09-15T04:49:36.075Z,18.67
2022-09-15T04:50:38.034Z,18.66
2022-09-15T04:51:40.871Z,18.66
2022-09-15T04:52:44.070Z,18.66
2022-09-15T04:53:47.394Z,18.66
2022-09-15T04:54:49.163Z,18.66
2022-09-15T04:55:51.884Z,18.66
2022-09-15T04:56:53.749Z,18.66
2022-09-15T04:57:56.527Z,18.67
2022-09-15T04:59:03.928Z,18.67
2022-09-15T05:00:07.555Z,18.69
2022-09-15T05:01:13.434Z,18.69
2022-09-15T05:02:15.357Z,18.67
2022-09-15T05:03:18.166Z,18.67
2022-09-15T05:04:19.919Z,18.67
2022-09-15T05:05:23.112Z,18.67
2022-09-15T05:06:27.030Z,18.68
2022-09-15T05:07:30.039Z,18.67
2022-09-15T05:08:33.163Z,18.68
2022-09-15T05:09:35.868Z,18.69
2022-09-15T05:10:38.104Z,18.68
2022-09-15T05:11:41.806Z,18.70
2022-09-15T05:12:43.571Z,18.69
2022-09-15T05:13:47.565Z,18.69
2022-09-15T05:14:50.516Z,18.66
2022-09-15T05:15:52.562Z,18.63
2022-09-15T05:16:55.376Z,18.63
2022-09-15T05:17:58.452Z,18.63
2022-09-15T05:19:02.911Z,18.61
2022-09-15T05:20:05.678Z,18.60
2022-09-15T05:21:11.023Z,18.59
2022-09-15T05:22:12.803Z,18.59
2022-09-15T05:23:15.714Z,18.58
2022-09-15T05:24:19.071Z,18.60
2022-09-15T05:25:21.898Z,18.59
2022-09-15T05:26:28.122Z,18.60
2022-09-15T05:27:32.757Z,18.59
2022-09-15T05:28:36.351Z,18.58
2022-09-15T05:29:39.139Z,18.58
2022-09-15T05:30:44.253Z,18.59
2022-09-15T05:31:47.517Z,18.58
2022-09-15T05:32:49.611Z,18.58
2022-09-15T05:33:53.006Z,18.58
2022-09-15T05:34:55.996Z,18.56
2022-09-15T05:35:59.485Z,18.57
2022-09-15T05:37:02.293Z,18.58
2022-09-15T05:38:04.059Z,18.58
2022-09-15T05:39:06.787Z,18.58
2022-09-15T05:40:10.632Z,18.58
2022-09-15T05:41:17.616Z,18.58
2022-09-15T05:42:20.356Z,18.60
2022-09-15T05:43:22.119Z,18.61
2022-09-15T05:44:24.874Z,18.59
2022-09-15T05:45:26.693Z,18.58
2022-09-15T05:46:30.181Z,18.59
2022-09-15T05:47:32.031Z,18.59
2022-09-15T05:48:35.297Z,18.60
2022-09-15T05:49:37.080Z,18.58
2022-09-15T05:50:40.273Z,18.58
2022-09-15T05:51:43.049Z,18.58
2022-09-15T05:52:44.871Z,18.58
2022-09-15T05:53:47.670Z,18.58
2022-09-15T05:54:49.426Z,18.58
2022-09-15T05:55:57.273Z,18.59
2022-09-15T05:57:00.352Z,18.59
2022-09-15T05:58:02.383Z,18.59
2022-09-15T05:59:05.173Z,18.60
2022-09-15T06:00:08.688Z,18.60
2022-09-15T06:01:16.180Z,18.61
2022-09-15T06:02:18.045Z,18.61
2022-09-15T06:03:21.904Z,18.61
2022-09-15T06:04:24.746Z,18.63
2022-09-15T06:05:26.592Z,18.63
2022-09-15T06:06:31.643Z,18.64
2022-09-15T06:07:34.123Z,18.64
2022-09-15T06:08:41.458Z,18.62
2022-09-15T06:09:45.889Z,18.61
2022-09-15T06:10:48.676Z,18.61
2022-09-15T06:11:52.364Z,18.61
2022-09-15T06:12:56.416Z,18.61
2022-09-15T06:14:00.545Z,18.62
2022-09-15T06:15:02.405Z,18.62
2022-09-15T06:16:07.589Z,18.64
2022-09-15T06:17:09.488Z,18.64
2022-09-15T06:18:12.225Z,18.64
2022-09-15T06:19:14.110Z,18.63
2022-09-15T06:20:16.995Z,18.63
2022-09-15T06:21:21.122Z,18.63
2022-09-15T06:22:24.069Z,18.64
2022-09-15T06:23:25.903Z,18.64
2022-09-15T06:24:28.656Z,18.63
2022-09-15T06:25:30.610Z,18.63
2022-09-15T06:26:33.918Z,18.60
2022-09-15T06:27:58.075Z,18.60
2022-09-15T06:29:02.215Z,18.58
2022-09-15T06:30:05.386Z,18.59
2022-09-15T06:31:11.404Z,18.58
2022-09-15T06:32:14.188Z,18.58
2022-09-15T06:33:16.219Z,18.57
2022-09-15T06:34:19.245Z,18.58
2022-09-15T06:35:21.078Z,18.58
2022-09-15T06:36:26.082Z,18.58
2022-09-15T06:37:27.926Z,18.58
2022-09-15T06:38:31.252Z,18.60
2022-09-15T06:39:33.146Z,18.58
2022-09-15T06:40:36.249Z,18.59
2022-09-15T06:41:58.767Z,18.58
2022-09-15T06:43:05.925Z,18.58
2022-09-15T06:44:10.641Z,18.58
2022-09-15T06:45:12.548Z,18.57
2022-09-15T06:46:17.825Z,18.55
2022-09-15T06:47:19.838Z,18.53
2022-09-15T06:48:25.199Z,18.52
2022-09-15T06:49:28.865Z,18.51
2022-09-15T06:50:31.649Z,18.50
2022-09-15T06:51:35.599Z,18.51
2022-09-15T06:52:38.399Z,18.49
2022-09-15T06:53:40.458Z,18.50
2022-09-15T06:54:43.300Z,18.50
2022-09-15T06:55:45.123Z,18.51
2022-09-15T06:56:48.131Z,18.51
2022-09-15T06:57:50.041Z,18.52
2022-09-15T06:58:54.446Z,18.53
2022-09-15T06:59:56.256Z,18.54
2022-09-15T07:01:03.399Z,18.55
2022-09-15T07:02:06.356Z,18.55
2022-09-15T07:03:08.461Z,18.56
2022-09-15T07:04:11.889Z,18.56
2022-09-15T07:05:13.870Z,18.56
2022-09-15T07:06:17.000Z,18.56
2022-09-15T07:07:19.972Z,18.56
2022-09-15T07:08:21.771Z,18.56
2022-09-15T07:09:24.582Z,18.56
2022-09-15T07:10:26.494Z,18.55
2022-09-15T07:11:30.025Z,18.57
2022-09-15T07:12:32.676Z,18.57
2022-09-15T07:13:36.318Z,18.57
2022-09-15T07:14:39.510Z,18.57
2022-09-15T07:15:43.612Z,18.57
2022-09-15T07:16:45.575Z,18.58
2022-09-15T07:17:48.373Z,18.59
2022-09-15T07:18:50.598Z,18.60
2022-09-15T07:19:53.405Z,18.61
2022-09-15T07:20:59.043Z,18.62
2022-09-15T07:22:02.108Z,18.63
2022-09-15T07:23:04.203Z,18.63
2022-09-15T07:24:07.776Z,18.64
2022-09-15T07:25:10.052Z,18.65
2022-09-15T07:26:14.604Z,18.66
2022-09-15T07:27:16.537Z,18.67
2022-09-15T07:28:19.357Z,18.68
2022-09-15T07:29:22.116Z,18.67
2022-09-15T07:30:25.398Z,18.68
2022-09-15T07:31:31.064Z,18.69
2022-09-15T07:32:33.516Z,18.70
2022-09-15T07:33:37.004Z,18.69
2022-09-15T07:34:39.764Z,18.70
2022-09-15T07:35:42.395Z,18.71
2022-09-15T07:36:45.152Z,18.75
2022-09-15T07:37:47.060Z,18.84
2022-09-15T07:38:50.736Z,18.89
2022-09-15T07:39:52.514Z,18.91
2022-09-15T07:40:55.477Z,18.93
2022-09-15T07:41:58.598Z,18.93
2022-09-15T07:43:00.445Z,18.93
2022-09-15T07:44:03.874Z,18.92
2022-09-15T07:45:07.034Z,18.92
2022-09-15T07:46:11.227Z,18.91
2022-09-15T07:47:13.050Z,18.91
2022-09-15T07:48:15.811Z,18.90
2022-09-15T07:49:18.589Z,18.89
2022-09-15T07:50:20.543Z,18.88
2022-09-15T07:51:23.711Z,18.86
2022-09-15T07:52:26.557Z,18.86
2022-09-15T07:53:29.246Z,18.84
2022-09-15T07:54:32.077Z,18.82
2022-09-15T07:55:34.207Z,18.81
2022-09-15T07:56:37.140Z,18.81
2022-09-15T07:57:38.966Z,18.79
2022-09-15T07:58:41.769Z,18.79
2022-09-15T07:59:43.621Z,18.79
2022-09-15T08:00:47.464Z,18.79
2022-09-15T08:01:52.282Z,18.78
2022-09-15T08:02:54.638Z,18.77
2022-09-15T08:03:57.498Z,18.77
2022-09-15T08:04:59.442Z,18.76
2022-09-15T08:06:03.789Z,18.77
2022-09-15T08:07:05.710Z,18.77
2022-09-15T08:08:08.939Z,18.77
2022-09-15T08:09:14.714Z,18.76
2022-09-15T08:10:42.578Z,18.78
2022-09-15T08:11:45.521Z,18.79
2022-09-15T08:12:47.558Z,18.78
2022-09-15T08:13:52.379Z,18.81
2022-09-15T08:14:54.167Z,18.83
2022-09-15T08:15:57.102Z,18.88
2022-09-15T08:17:01.545Z,18.95
2022-09-15T08:18:03.860Z,19.01
2022-09-15T08:19:06.695Z,19.06
2022-09-15T08:20:09.200Z,19.10
2022-09-15T08:21:14.311Z,19.13
2022-09-15T08:22:17.113Z,19.12
2022-09-15T08:23:19.013Z,19.11
2022-09-15T08:24:22.607Z,19.11
2022-09-15T08:25:24.614Z,19.10
2022-09-15T08:26:28.968Z,19.08
2022-09-15T08:27:30.713Z,19.08
2022-09-15T08:28:33.918Z,19.08
2022-09-15T08:29:35.699Z,19.11
2022-09-15T08:30:38.804Z,19.11
2022-09-15T08:31:40.852Z,19.10
2022-09-15T08:32:45.114Z,19.10
2022-09-15T08:33:49.078Z,19.08
2022-09-15T08:34:51.960Z,19.09
2022-09-15T08:35:53.816Z,19.10
2022-09-15T08:36:56.818Z,19.11
2022-09-15T08:37:58.899Z,19.11
2022-09-15T08:39:01.764Z,19.13
2022-09-15T08:40:04.228Z,19.14
2022-09-15T08:41:10.550Z,19.14
2022-09-15T08:42:15.939Z,19.14
2022-09-15T08:43:25.001Z,19.15
2022-09-15T08:44:36.853Z,19.15
2022-09-15T08:45:47.909Z,19.15
2022-09-15T08:46:55.141Z,19.16
2022-09-15T08:48:01.652Z,19.15
2022-09-15T08:49:09.432Z,19.16
2022-09-15T08:50:20.592Z,19.16
2022-09-15T08:51:31.698Z,19.16
2022-09-15T08:52:38.126Z,19.15
2022-09-15T08:53:47.228Z,19.15
2022-09-15T08:54:52.997Z,19.14
2022-09-15T08:55:56.658Z,19.14
2022-09-15T08:57:01.582Z,19.13
2022-09-15T08:58:03.485Z,19.11
2022-09-15T08:59:06.380Z,19.13
2022-09-15T09:00:14.210Z,19.11
2022-09-15T09:01:27.610Z,19.12
2022-09-15T09:02:54.894Z,19.11
2022-09-15T09:04:21.599Z,19.10
2022-09-15T09:05:40.762Z,19.08
2022-09-15T09:06:52.076Z,19.11
2022-09-15T09:08:12.348Z,19.09
2022-09-15T09:09:25.262Z,19.08
2022-09-15T09:10:37.911Z,19.08
2022-09-15T09:11:55.694Z,19.07
2022-09-15T09:13:11.349Z,19.07
2022-09-15T09:14:24.559Z,19.06
2022-09-15T09:15:39.654Z,19.06
2022-09-15T09:16:55.956Z,19.07
2022-09-15T09:18:17.853Z,19.07
2022-09-15T09:19:48.929Z,19.07
2022-09-15T09:21:05.423Z,19.08
2022-09-15T09:22:11.535Z,19.08
2022-09-15T09:23:18.941Z,19.10
2022-09-15T09:24:34.604Z,19.11
2022-09-15T09:25:39.023Z,19.15
2022-09-15T09:26:40.917Z,19.18
2022-09-15T09:27:43.896Z,19.20
2022-09-15T09:28:50.117Z,19.24
2022-09-15T09:29:58.780Z,19.27
2022-09-15T09:31:08.052Z,19.30
2022-09-15T09:32:21.678Z,19.34
2022-09-15T09:33:30.343Z,19.38
2022-09-15T09:34:45.093Z,19.42
2022-09-15T09:35:51.538Z,19.46
2022-09-15T09:36:58.299Z,19.48
2022-09-15T09:38:02.335Z,19.49
2022-09-15T09:39:05.495Z,19.51
2022-09-15T09:40:13.081Z,19.52
2022-09-15T09:41:19.376Z,19.53
2022-09-15T09:42:26.905Z,19.54
2022-09-15T09:43:30.714Z,19.56
2022-09-15T09:44:33.875Z,19.57
2022-09-15T09:45:36.929Z,19.58
2022-09-15T09:46:42.629Z,19.60
2022-09-15T09:47:46.246Z,19.61
2022-09-15T09:48:52.710Z,19.61
2022-09-15T09:49:56.940Z,19.60
2022-09-15T09:50:58.881Z,19.63
2022-09-15T09:52:03.645Z,19.64
2022-09-15T09:53:19.542Z,19.67
2022-09-15T09:54:25.020Z,19.68
2022-09-15T09:55:28.138Z,19.70
2022-09-15T09:56:31.292Z,19.70
2022-09-15T09:57:40.469Z,19.70
2022-09-15T09:58:43.903Z,19.72
2022-09-15T09:59:47.353Z,19.73
2022-09-15T10:00:50.597Z,19.75
2022-09-15T10:02:05.910Z,19.78
2022-09-15T10:03:14.233Z,19.80
2022-09-15T10:04:19.191Z,19.81
2022-09-15T10:05:23.696Z,19.84
2022-09-15T10:06:31.040Z,19.87
2022-09-15T10:07:34.994Z,19.89
2022-09-15T10:08:37.340Z,19.95
2022-09-15T10:09:40.535Z,19.96
2022-09-15T10:10:50.178Z,19.98
2022-09-15T10:11:56.107Z,20.01
2022-09-15T10:12:59.519Z,20.03
2022-09-15T10:14:02.922Z,20.07
2022-09-15T10:15:07.653Z,20.10
2022-09-15T10:16:11.298Z,20.14
2022-09-15T10:17:16.194Z,20.16
2022-09-15T10:18:29.181Z,20.18
2022-09-15T10:19:33.560Z,20.19
2022-09-15T10:20:47.701Z,20.14
2022-09-15T10:21:49.637Z,20.14
2022-09-15T10:22:53.405Z,20.12
2022-09-15T10:23:55.259Z,20.08
2022-09-15T10:24:58.356Z,20.05
2022-09-15T10:26:33.051Z,20.01
2022-09-15T10:27:37.594Z,19.98
2022-09-15T10:28:39.388Z,19.93
2022-09-15T10:29:42.199Z,19.91
2022-09-15T10:31:00.874Z,19.87
2022-09-15T10:32:19.790Z,19.83
2022-09-15T10:33:27.696Z,19.81
2022-09-15T10:34:30.931Z,19.79
2022-09-15T10:35:34.451Z,19.76
2022-09-15T10:36:37.742Z,19.75
2022-09-15T10:38:01.221Z,19.74
2022-09-15T10:39:12.989Z,19.73
2022-09-15T10:40:32.912Z,19.73
2022-09-15T10:41:42.441Z,19.73
2022-09-15T10:42:52.802Z,19.73
2022-09-15T10:44:07.891Z,19.73
2022-09-15T10:45:27.330Z,19.74
2022-09-15T10:46:39.347Z,19.74
2022-09-15T10:47:57.909Z,19.74
2022-09-15T10:49:20.204Z,19.74
2022-09-15T10:50:30.583Z,19.75
2022-09-15T10:51:46.396Z,19.75
2022-09-15T10:53:06.016Z,19.76
2022-09-15T10:54:27.854Z,19.76
2022-09-15T10:55:52.865Z,19.76
2022-09-15T10:57:00.092Z,19.76
2022-09-15T10:58:22.729Z,19.77
2022-09-15T10:59:37.794Z,19.76
2022-09-15T11:00:45.743Z,19.75
2022-09-15T11:02:01.855Z,19.75
2022-09-15T11:03:22.887Z,19.74
2022-09-15T11:05:01.338Z,19.74
2022-09-15T11:06:15.912Z,19.75
2022-09-15T11:07:32.294Z,19.76
2022-09-15T11:08:58.266Z,19.77
2022-09-15T11:10:10.327Z,19.77
2022-09-15T11:11:18.519Z,19.76
2022-09-15T11:12:37.562Z,19.77
2022-09-15T11:13:50.283Z,19.77
2022-09-15T11:15:05.523Z,19.77
2022-09-15T11:16:13.300Z,19.77
2022-09-15T11:17:31.324Z,19.78
2022-09-15T11:18:57.068Z,19.79
2022-09-15T11:20:23.239Z,19.79
2022-09-15T11:21:31.635Z,19.81
2022-09-15T11:22:39.661Z,19.83
2022-09-15T11:23:48.280Z,19.84
2022-09-15T11:24:54.339Z,19.87
2022-09-15T11:26:03.976Z,19.87
2022-09-15T11:27:12.877Z,19.88
2022-09-15T11:28:21.155Z,19.89
2022-09-15T11:29:26.836Z,19.90
2022-09-15T11:30:36.685Z,19.90
2022-09-15T11:31:43.015Z,19.92
2022-09-15T11:32:51.844Z,19.90
2022-09-15T11:34:01.330Z,19.92
2022-09-15T11:35:29.148Z,19.91
2022-09-15T11:36:38.623Z,19.92
2022-09-15T11:37:47.355Z,19.93
2022-09-15T11:38:55.571Z,19.94
2022-09-15T11:40:02.381Z,19.91
2022-09-15T11:41:18.470Z,19.93
2022-09-15T11:42:27.252Z,19.91
2022-09-15T11:43:35.006Z,19.92
2022-09-15T11:44:41.374Z,19.92
2022-09-15T11:45:48.642Z,19.93
2022-09-15T11:47:01.824Z,19.90
2022-09-15T11:48:12.629Z,19.91
2022-09-15T11:49:19.517Z,19.91
2022-09-15T11:50:25.143Z,19.90
2022-09-15T11:51:35.844Z,19.90
2022-09-15T11:52:53.082Z,19.90
2022-09-15T11:54:02.732Z,19.91
2022-09-15T11:55:17.587Z,19.91
2022-09-15T11:56:25.577Z,19.91
2022-09-15T11:57:35.900Z,19.92
2022-09-15T11:59:01.396Z,19.92
2022-09-15T12:00:11.627Z,19.91
2022-09-15T12:01:19.227Z,19.92
2022-09-15T12:02:29.489Z,19.90
2022-09-15T12:03:37.726Z,19.89
2022-09-15T12:04:49.666Z,19.90
2022-09-15T12:05:56.965Z,19.88
2022-09-15T12:07:09.876Z,19.88
2022-09-15T12:08:21.521Z,19.87
2022-09-15T12:09:24.748Z,19.86
2022-09-15T12:10:31.472Z,19.85
2022-09-15T12:11:37.574Z,19.84
2022-09-15T12:12:41.501Z,19.83
2022-09-15T12:13:44.787Z,19.81
2022-09-15T12:14:50.295Z,19.81
2022-09-15T12:15:53.459Z,19.80
2022-09-15T12:16:57.813Z,19.80
2022-09-15T12:18:27.399Z,19.78
2022-09-15T12:19:55.498Z,19.76
2022-09-15T12:21:04.109Z,19.75
2022-09-15T12:22:16.136Z,19.73
2022-09-15T12:23:25.312Z,19.70
2022-09-15T12:24:36.093Z,19.68
2022-09-15T12:25:59.255Z,19.66
2022-09-15T12:27:01.943Z,19.63
2022-09-15T12:28:27.760Z,19.60
2022-09-15T12:29:38.103Z,19.60
2022-09-15T12:30:44.068Z,19.58
2022-09-15T12:31:47.231Z,19.57
2022-09-15T12:32:49.046Z,19.54
2022-09-15T12:33:57.134Z,19.53
2022-09-15T12:35:16.431Z,19.54
2022-09-15T12:36:51.214Z,19.55
2022-09-15T12:37:54.928Z,19.55
2022-09-15T12:38:59.826Z,19.57
2022-09-15T12:40:05.522Z,19.58
2022-09-15T12:41:10.629Z,19.57
2022-09-15T12:42:18.559Z,19.58
2022-09-15T12:43:24.361Z,19.59
2022-09-15T12:44:32.730Z,19.61
2022-09-15T12:45:36.965Z,19.62
2022-09-15T12:46:39.486Z,19.63
2022-09-15T12:47:52.912Z,19.64
2022-09-15T12:48:59.436Z,19.64
2022-09-15T12:50:09.575Z,19.66
2022-09-15T12:51:12.936Z,19.69
2022-09-15T12:52:16.646Z,19.70
2022-09-15T12:53:22.842Z,19.72
2022-09-15T12:54:29.617Z,19.74
2022-09-15T12:55:35.973Z,19.74
2022-09-15T12:56:37.870Z,19.75
2022-09-15T12:57:40.727Z,19.75
2022-09-15T12:58:47.787Z,19.78
2022-09-15T12:59:50.588Z,19.80
2022-09-15T13:01:28.657Z,19.83
2022-09-15T13:02:45.301Z,19.84
2022-09-15T13:04:24.051Z,19.87
2022-09-15T13:06:09.967Z,19.88
2022-09-15T13:07:56.217Z,19.87
2022-09-15T13:09:26.724Z,19.86
2022-09-15T13:10:39.458Z,19.85
2022-09-15T13:11:46.085Z,19.85
2022-09-15T13:12:54.440Z,19.85
2022-09-15T13:14:10.623Z,19.85
2022-09-15T13:15:15.908Z,19.84
2022-09-15T13:16:26.729Z,19.84
2022-09-15T13:17:31.231Z,19.85
2022-09-15T13:18:34.130Z,19.85
2022-09-15T13:19:43.606Z,19.85
2022-09-15T13:20:53.394Z,19.85
2022-09-15T13:22:02.768Z,19.86
2022-09-15T13:23:09.162Z,19.86
2022-09-15T13:24:18.422Z,19.87
2022-09-15T13:25:26.193Z,19.87
2022-09-15T13:26:33.008Z,19.90
2022-09-15T13:27:37.946Z,19.93
2022-09-15T13:28:41.224Z,19.95
2022-09-15T13:29:48.129Z,19.97
2022-09-15T13:31:05.564Z,19.99
2022-09-15T13:32:17.006Z,19.99
2022-09-15T13:35:31.414Z,19.99
2022-09-15T13:38:39.509Z,20.00
2022-09-15T13:39:59.604Z,19.98
2022-09-15T13:41:31.088Z,19.96
2022-09-15T13:42:53.109Z,19.91
2022-09-15T13:44:34.697Z,19.91
2022-09-15T13:45:49.753Z,19.88
2022-09-15T13:47:05.267Z,19.88
2022-09-15T13:48:24.088Z,19.88
2022-09-15T13:49:45.690Z,19.87
2022-09-15T13:50:57.113Z,19.88
2022-09-15T13:52:08.223Z,19.88
2022-09-15T13:53:37.172Z,19.89
2022-09-15T13:55:10.212Z,19.89
2022-09-15T13:56:24.456Z,19.91
2022-09-15T13:58:57.351Z,19.89
2022-09-15T14:00:03.285Z,19.89
2022-09-15T14:01:08.718Z,19.89
2022-09-15T14:02:12.823Z,19.88
2022-09-15T14:03:19.992Z,19.87
2022-09-15T14:04:26.880Z,19.85
2022-09-15T14:05:31.750Z,19.83
2022-09-15T14:06:37.891Z,19.81
2022-09-15T14:07:39.992Z,19.80
2022-09-15T14:08:50.602Z,19.79
2022-09-15T14:09:52.471Z,19.76
2022-09-15T14:10:57.447Z,19.76
2022-09-15T14:12:04.454Z,19.75
2022-09-15T14:13:06.319Z,19.75
2022-09-15T14:14:23.067Z,19.75
2022-09-15T14:15:26.027Z,19.74
2022-09-15T14:16:34.934Z,19.73
2022-09-15T14:17:45.241Z,19.71
2022-09-15T14:18:48.200Z,19.70
2022-09-15T14:19:52.610Z,19.72
2022-09-15T14:20:58.880Z,19.70
2022-09-15T14:22:02.670Z,19.69
2022-09-15T14:23:16.148Z,19.67
2022-09-15T14:24:22.953Z,19.66
2022-09-15T14:25:27.027Z,19.66